createdAt,value
2022-11-23T00:04:13.148Z,28.4
2022-11-23T00:09:36.360Z,28.3
2022-11-23T00:15:14.973Z,28.3
2022-11-23T00:20:39.225Z,28.3
2022-11-23T00:26:17.253Z,28.2
2022-11-23T00:31:39.652Z,28.2
2022-11-23T00:37:17.991Z,28.2
2022-11-23T00:42:55.791Z,28.1
2022-11-23T00:48:18.483Z,28.1
2022-11-23T00:53:56.421Z,28.1
2022-11-23T00:59:34.811Z,28
2022-11-23T01:05:12.813Z,28
2022-11-23T01:10:51.534Z,27.9
2022-11-23T01:15:57.027Z,27.9
2022-11-23T01:21:03.555Z,27.9
2022-11-23T01:26:13.600Z,27.9
2022-11-23T01:46:50.109Z,27.8
2022-11-23T01:52:11.889Z,27.8
2022-11-23T01:57:22.982Z,27.7
2022-11-23T02:02:29.686Z,27.8
2022-11-23T02:07:51.516Z,28
2022-11-23T02:13:13.943Z,28.4
2022-11-23T02:18:53.360Z,29
2022-11-23T02:24:30.246Z,29.4
2022-11-23T02:30:09.402Z,29.8
2022-11-23T02:35:46.663Z,30.2
2022-11-23T02:41:09.854Z,30.6
2022-11-23T02:46:47.540Z,31.1
2022-11-23T02:52:25.161Z,31.5
2022-11-23T02:57:46.674Z,31.9
2022-11-23T03:03:25.008Z,32.4
2022-11-23T03:09:02.075Z,32.8
2022-11-23T03:14:39.197Z,33.3
2022-11-23T03:20:01.724Z,33.8
2022-11-23T03:25:23.756Z,34.3
2022-11-23T03:31:01.355Z,34.9
2022-11-23T03:36:38.735Z,35.4
2022-11-23T03:42:17.356Z,35.7
2022-11-23T03:47:54.903Z,35.9
2022-11-23T03:53:33.224Z,36.1
2022-11-23T03:59:11.071Z,36.2
2022-11-23T04:04:49.379Z,36.3
2022-11-23T04:10:27.213Z,36.4
2022-11-23T04:16:05.071Z,36.4
2022-11-23T04:21:11.877Z,36.5
2022-11-23T04:26:53.045Z,36.5
2022-11-23T04:32:30.079Z,36.6
2022-11-23T04:37:36.175Z,36.6
2022-11-23T04:43:18.137Z,36.6
2022-11-23T04:48:39.659Z,36.6
2022-11-23T04:54:04.774Z,36.6
2022-11-23T04:59:42.495Z,36.6
2022-11-23T05:05:23.386Z,36.6
2022-11-23T05:11:01.450Z,36.6
2022-11-23T05:16:39.165Z,36.6
2022-11-23T05:22:16.640Z,36.5
2022-11-23T05:27:59.159Z,36.4
2022-11-23T05:34:01.258Z,36.4
2022-11-23T05:39:27.526Z,36.4
2022-11-23T05:44:34.407Z,36.4
2022-11-23T05:49:58.965Z,36.4
2022-11-23T05:55:36.081Z,36.4
2022-11-23T06:00:42.598Z,36.4
2022-11-23T06:06:22.334Z,36.3
2022-11-23T06:11:45.169Z,36.3
2022-11-23T06:17:07.734Z,36.3
2022-11-23T06:22:45.316Z,36.2
2022-11-23T06:28:24.415Z,36.1
2022-11-23T06:34:02.387Z,36.1
2022-11-23T06:39:45.144Z,36.1
2022-11-23T06:45:55.391Z,36
2022-11-23T06:51:38.538Z,35.9
2022-11-23T06:57:16.542Z,35.9
2022-11-23T07:02:54.094Z,35.8
2022-11-23T07:08:32.795Z,35.8
2022-11-23T07:14:11.413Z,35.7
2022-11-23T07:19:49.315Z,35.6
2022-11-23T07:25:31.893Z,35.6
2022-11-23T07:30:59.546Z,35.6
2022-11-23T07:36:37.089Z,35.5
2022-11-23T07:43:12.991Z,34.8
2022-11-23T07:48:53.199Z,33.8
2022-11-23T07:54:33.026Z,33.3
2022-11-23T08:00:10.459Z,32.9
2022-11-23T08:06:32.121Z,46.9
2022-11-23T08:12:15.182Z,48.6
2022-11-23T08:17:37.469Z,45.8
2022-11-23T08:23:21.510Z,51.1
2022-11-23T08:29:00.239Z,54
2022-11-23T08:34:38.355Z,55.3
2022-11-23T08:40:20.726Z,55.6
2022-11-23T08:46:04.808Z,54.6
2022-11-23T08:51:49.826Z,55.3
2022-11-23T08:57:12.915Z,56.8
2022-11-23T09:02:50.814Z,57.4
2022-11-23T09:08:35.065Z,58.2
2022-11-23T09:14:15.712Z,58.7
2022-11-23T09:19:58.062Z,58.8
2022-11-23T09:25:43.860Z,59.3
2022-11-23T09:31:27.474Z,59.9
2022-11-23T09:37:06.782Z,60.4
2022-11-23T09:43:10.059Z,61.1
2022-11-23T09:48:49.289Z,61.5
2022-11-23T09:54:27.336Z,61.8
2022-11-23T10:00:09.273Z,62.2
2022-11-23T10:05:32.576Z,62.6
2022-11-23T10:11:10.760Z,62.6
2022-11-23T10:16:53.647Z,61.8
2022-11-23T10:22:31.333Z,62.8
2022-11-23T10:28:09.520Z,63.3
2022-11-23T10:33:52.336Z,63.3
2022-11-23T10:39:37.164Z,63.3
2022-11-23T10:45:14.809Z,63.5
2022-11-23T10:50:53.150Z,62.3
2022-11-23T10:56:34.260Z,61.6
2022-11-23T11:02:12.817Z,62.4
2022-11-23T11:08:25.565Z,63.6
2022-11-23T11:14:07.884Z,62.8
2022-11-23T11:20:01.263Z,62.9
2022-11-23T11:25:39.480Z,62.9
2022-11-23T11:31:18.285Z,63.8
2022-11-23T11:37:01.168Z,64.1
2022-11-23T11:42:58.575Z,63.3
2022-11-23T11:49:13.399Z,62.6
2022-11-23T11:54:51.711Z,61.4
2022-11-23T12:00:19.256Z,58.6
2022-11-23T12:05:43.696Z,55.3
2022-11-23T12:11:25.074Z,62.3
2022-11-23T12:18:11.638Z,62.8
2022-11-23T12:23:04.531Z,63.2
2022-11-23T12:28:42.601Z,61.8
2022-11-23T12:34:20.788Z,59.7
2022-11-23T12:40:02.672Z,56.3
2022-11-23T12:45:30.196Z,56.7
2022-11-23T12:51:08.298Z,60.9
2022-11-23T12:56:47.532Z,61.4
2022-11-23T13:02:11.027Z,61.6
2022-11-23T13:08:09.046Z,61.4
2022-11-23T13:13:49.282Z,60.8
2022-11-23T13:19:31.984Z,60.4
2022-11-23T13:24:54.938Z,60.1
2022-11-23T13:31:07.634Z,58.5
2022-11-23T13:37:30.488Z,54.8
2022-11-23T13:43:12.215Z,51.6
2022-11-23T13:49:20.919Z,49.5
2022-11-23T13:55:00.546Z,47.9
2022-11-23T14:00:41.982Z,46.8
2022-11-23T14:06:27.127Z,45.9
2022-11-23T14:12:06.015Z,44.8
2022-11-23T14:17:44.496Z,43.5
2022-11-23T14:23:06.513Z,42.4
2022-11-23T14:29:07.551Z,41.8
2022-11-23T14:34:46.647Z,41.1
2022-11-23T14:40:28.932Z,40.5
2022-11-23T14:46:08.292Z,40.1
2022-11-23T14:51:47.202Z,39.6
2022-11-23T14:57:28.439Z,39.1
2022-11-23T15:03:21.029Z,38.6
2022-11-23T15:09:16.036Z,38.2
2022-11-23T15:14:38.405Z,37.8
2022-11-23T15:20:16.877Z,37.4
2022-11-23T15:25:58.666Z,37.1
2022-11-23T15:32:38.907Z,36.8
2022-11-23T15:37:46.736Z,36.5
2022-11-23T15:43:28.953Z,36.3
2022-11-23T15:49:09.630Z,36
2022-11-23T15:54:48.675Z,35.8
2022-11-23T16:00:31.043Z,35.6
2022-11-23T16:06:16.148Z,35.4
2022-11-23T16:12:29.521Z,35.2
2022-11-23T16:18:13.228Z,35
2022-11-23T16:23:57.240Z,34.9
2022-11-23T16:29:20.484Z,34.6
2022-11-23T16:35:05.199Z,34.3
2022-11-23T16:40:44.949Z,33.6
2022-11-23T16:46:24.568Z,32.2
2022-11-23T16:52:12.757Z,30.5
2022-11-23T16:58:28.071Z,29.1
2022-11-23T17:03:39.056Z,28.1
2022-11-23T17:09:24.358Z,27.4
2022-11-23T17:15:08.313Z,26.9
2022-11-23T17:20:53.292Z,26.4
2022-11-23T17:26:37.370Z,26.1
2022-11-23T17:32:15.563Z,25.8
2022-11-23T17:37:53.358Z,25.5
2022-11-23T17:43:32.117Z,25.3
2022-11-23T17:48:39.391Z,25.1
2022-11-23T17:54:17.056Z,24.9
2022-11-23T17:59:57.399Z,24.7
2022-11-23T18:05:23.977Z,24.6
2022-11-23T18:11:02.464Z,24.4
2022-11-23T18:16:41.385Z,24.3
2022-11-23T18:22:19.531Z,24.2
2022-11-23T18:28:02.147Z,24
2022-11-23T18:33:47.349Z,23.9
2022-11-23T18:39:29.355Z,23.9
2022-11-23T18:44:57.656Z,23.8
2022-11-23T18:50:23.369Z,23.7
2022-11-23T18:56:02.910Z,23.6
2022-11-23T19:02:00.651Z,23.6
2022-11-23T19:07:43.764Z,23.5
2022-11-23T19:13:23.209Z,23.5
2022-11-23T19:19:03.109Z,23.4
2022-11-23T19:24:30.967Z,23.4
2022-11-23T19:29:58.058Z,23.3
2022-11-23T19:35:22.609Z,23.1
2022-11-23T19:40:30.685Z,23
2022-11-23T19:46:17.526Z,23
2022-11-23T19:52:04.722Z,22.9
2022-11-23T19:58:03.279Z,22.9
2022-11-23T20:03:43.369Z,22.8
2022-11-23T20:09:13.816Z,22.8
2022-11-23T20:14:43.435Z,22.7
2022-11-23T20:20:25.882Z,22.6
2022-11-23T20:26:04.842Z,22.6
2022-11-23T20:31:47.867Z,22.6
2022-11-23T20:37:18.009Z,22.5
2022-11-23T20:42:41.059Z,22.4
2022-11-23T20:48:40.729Z,22.4
2022-11-23T20:54:19.594Z,22.4
2022-11-23T21:00:03.120Z,22.4
2022-11-23T21:05:42.712Z,22.4
2022-11-23T21:11:34.301Z,22.4
2022-11-23T21:17:30.165Z,22.3
2022-11-23T21:23:07.785Z,22.3
2022-11-23T21:28:46.101Z,22.2
2022-11-23T21:34:27.263Z,22.3
2022-11-23T21:40:09.550Z,22.2
2022-11-23T21:45:16.885Z,22.1
2022-11-23T21:50:24.651Z,22.2
2022-11-23T21:56:09.841Z,22.1
2022-11-23T22:01:37.723Z,22.1
2022-11-23T22:07:16.030Z,22.1
2022-11-23T22:13:02.568Z,22.1
2022-11-23T22:18:41.492Z,22.1
2022-11-23T22:24:19.413Z,22.1
2022-11-23T22:29:46.299Z,22.1
2022-11-23T22:35:25.310Z,22
2022-11-23T22:40:57.043Z,22
2022-11-23T22:46:38.901Z,22
2022-11-23T22:52:16.912Z,22
2022-11-23T22:57:43.108Z,21.9
2022-11-23T23:03:21.488Z,21.9
2022-11-23T23:08:44.703Z,21.9
2022-11-23T23:14:21.878Z,21.9
2022-11-23T23:19:44.608Z,21.9
2022-11-23T23:25:08.021Z,21.9
2022-11-23T23:30:29.961Z,21.9
2022-11-23T23:36:08.075Z,21.9
2022-11-23T23:41:45.440Z,21.9
2022-11-23T23:47:23.478Z,21.8
2022-11-23T23:53:01.398Z,21.8
2022-11-23T23:58:24.039Z,21.8
